Аэропорт: Орск. Орск

ICAO: UWOR

METAR:
2019-12-12 11:00:00
UWOR 121100Z 32006MPS 9999 BKN032 M01/M04 Q1013 R25/150055 NOSIG RMK QFE736/0981
METAR:
2019-12-12 07:55:00
TAF UWOR 120755Z 1209/1218 29007G14MPS 3100 -SN BLSN BR BKN011 TXM02/1209Z TNM07/1217Z TEMPO 1209/1218 33009G17MPS 1000 SHSN BLSN BKN003 BKN013CB